Yountville, CA

9:22 AM PST on March 02, 2015 (GMT -0800)
Yountville Deli (Washington St) | Change Station
CLOSE
Current Station
Personal Weather Station
Location: Yountville, CA
Elevation: 98 ft
Nearby Weather Stations

Elev 98 ft 38.40 °N, 122.36 °W | Updated 11 seconds ago

Mostly Cloudy
Mostly Cloudy
46.6 °F
Feels Like 47 °F
N
1.2
Wind Variable Wind from NE
Gusts 1.2 mph

Today
High -- | Low -- °F
--% Chance of Precip.
Yesterday
High -- | Low -- °F
Precip. -- in
6:40 AM 6:03 PM
Waxing Gibbous, 92% visible
Pressure 29.77 in
Visibility 10.0 miles
Clouds Scattered Clouds 2200 ft
Overcast 3000 ft
Windchill 47 °F
Dew Point 44 °F
Humidity 90%
Rainfall 0.00 in
Snow Depth Not available.
UV 1 out of 12
Pollen 8.00 out of 12
Air Quality Not available.
Flu Activity Not available.
METAR KAPC 021654Z 21012KT 10SM SCT022 OVC030 12/09 A2980 RMK AO2 SLP081 T01170089

More Conditions Fewer Conditions

Pressure 29.77 in
Visibility 10.0 miles
Clouds Scattered Clouds 2200 ft
Overcast 3000 ft
Windchill 47 °F
Dew Point 44 °F
Humidity 90%
Rainfall 0.00 in
Snow Depth Not available.
UV 1 out of 12
Pollen 8.00 out of 12
Air Quality Not available.
Flu Activity Not available.
METAR KAPC 021654Z 21012KT 10SM SCT022 OVC030 12/09 A2980 RMK AO2 SLP081 T01170089

More Conditions Fewer Conditions

10-Day Weather Forecast

Almanac

Astronomy

Mar. 02, 2015 Rise Set
Actual Time
Civil Twilight
Nautical Twilight
Astronomical Twilight
Moon
Length of Visible Light
Length of Day
Tomorrow will be .
, % of the Moon is Illuminated

Today's Extremes

State Highs State Lows

Community

WunderPhotos

Upload Photos

1,801,866 photos uploaded!

WunderBlogs® & News

Nearby

Air Quality

  Air Quality AQ Index Pollutant
Not available.

Snow Depth

Station Depth Elevation

Earthquake Activity

City Distance Mag. Time & Date
Minimum magnitude displayed is 2.5.

Coastal Water Temperatures

Place Temperature

Nearby Weather Stations